createdAt,value
2023-04-26T00:00:45.693Z,95847.81
2023-04-26T00:03:13.485Z,95858.78
2023-04-26T00:05:40.745Z,95858.28
2023-04-26T00:08:07.314Z,95855.41
2023-04-26T00:10:33.845Z,95854.38
2023-04-26T00:13:00.448Z,95848.03
2023-04-26T00:15:27.139Z,95843.91
2023-04-26T00:17:53.703Z,95837.78
2023-04-26T00:20:20.426Z,95849.59
2023-04-26T00:22:46.905Z,95847.19
2023-04-26T00:25:13.927Z,95846.13
2023-04-26T00:27:40.554Z,95835.97
2023-04-26T00:30:07.764Z,95849.88
2023-04-26T00:32:35.607Z,95844.63
2023-04-26T00:35:04.611Z,95849.34
2023-04-26T00:37:31.233Z,95845.69
2023-04-26T00:39:57.744Z,95847.53
2023-04-26T00:42:24.322Z,95838.81
2023-04-26T00:44:55.178Z,95850.16
2023-04-26T00:47:21.719Z,95842.09
2023-04-26T00:49:48.381Z,95840.75
2023-04-26T00:52:15.393Z,95835.53
2023-04-26T00:54:42.515Z,95839.50
2023-04-26T00:57:09.896Z,95843.66
2023-04-26T00:59:37.050Z,95849.38
2023-04-26T01:02:04.006Z,95858.25
2023-04-26T01:04:30.948Z,95850.94
2023-04-26T01:06:58.358Z,95853.25
2023-04-26T01:09:24.911Z,95856.69
2023-04-26T01:11:52.578Z,95864.84
2023-04-26T01:14:19.333Z,95858.78
2023-04-26T01:16:48.780Z,95862.91
2023-04-26T01:19:18.539Z,95860.28
2023-04-26T01:21:45.726Z,95848.97
2023-04-26T01:24:14.010Z,95853.47
2023-04-26T01:26:45.590Z,95866.31
2023-04-26T01:29:18.721Z,95863.94
2023-04-26T01:31:45.963Z,95850.81
2023-04-26T01:34:12.862Z,95858.91
2023-04-26T01:36:39.526Z,95863.91
2023-04-26T01:39:06.300Z,95855.03
2023-04-26T01:41:33.699Z,95853.63
2023-04-26T01:44:01.345Z,95868.31
2023-04-26T01:46:28.055Z,95859.34
2023-04-26T01:48:54.937Z,95860.16
2023-04-26T01:51:23.476Z,95870.72
2023-04-26T01:53:50.015Z,95874.56
2023-04-26T01:56:16.725Z,95872.94
2023-04-26T01:58:43.437Z,95872.69
2023-04-26T02:01:10.058Z,95872.16
2023-04-26T02:03:37.146Z,95868.22
2023-04-26T02:06:03.852Z,95882.16
2023-04-26T02:08:30.485Z,95871.19
2023-04-26T02:10:57.125Z,95879.53
2023-04-26T02:13:23.701Z,95876.16
2023-04-26T02:15:51.350Z,95870.31
2023-04-26T02:18:21.893Z,95867.38
2023-04-26T02:20:50.011Z,95868.16
2023-04-26T02:23:16.690Z,95876.16
2023-04-26T02:25:46.850Z,95861.06
2023-04-26T02:28:13.733Z,95862.91
2023-04-26T02:30:40.472Z,95859.13
2023-04-26T02:33:08.938Z,95863.13
2023-04-26T02:35:39.544Z,95865.72
2023-04-26T02:38:06.052Z,95876.34
2023-04-26T02:40:32.693Z,95861.91
2023-04-26T02:43:00.452Z,95867.72
2023-04-26T02:45:27.242Z,95865.28
2023-04-26T02:47:53.874Z,95870.53
2023-04-26T02:50:20.992Z,95869.34
2023-04-26T02:52:48.694Z,95868.16
2023-04-26T02:55:15.251Z,95871.81
2023-04-26T02:57:42.701Z,95866.63
2023-04-26T03:00:09.845Z,95856.16
2023-04-26T03:02:36.626Z,95864.09
2023-04-26T03:05:03.740Z,95857.16
2023-04-26T03:07:31.401Z,95865.84
2023-04-26T03:09:58.041Z,95866.59
2023-04-26T03:12:24.559Z,95867.09
2023-04-26T03:14:51.210Z,95868.91
2023-04-26T03:17:18.194Z,95864.31
2023-04-26T03:19:44.906Z,95866.41
2023-04-26T03:22:15.964Z,95866.91
2023-04-26T03:24:43.601Z,95865.44
2023-04-26T03:27:10.862Z,95863.91
2023-04-26T03:29:37.633Z,95872.56
2023-04-26T03:32:04.841Z,95871.75
2023-04-26T03:34:31.623Z,95870.63
2023-04-26T03:36:58.290Z,95876.72
2023-04-26T03:39:24.939Z,95885.31
2023-04-26T03:41:52.459Z,95874.47
2023-04-26T03:44:18.993Z,95873.63
2023-04-26T03:46:45.672Z,95861.94
2023-04-26T03:49:12.167Z,95876.94
2023-04-26T03:51:38.686Z,95874.31
2023-04-26T03:54:05.420Z,95876.94
2023-04-26T03:56:32.009Z,95880.47
2023-04-26T03:58:59.302Z,95876.63
2023-04-26T04:01:26.931Z,95888.88
2023-04-26T04:03:54.035Z,95863.28
2023-04-26T04:06:21.789Z,95882.00
2023-04-26T04:08:48.440Z,95888.44
2023-04-26T04:11:16.735Z,95891.00
2023-04-26T04:13:43.520Z,95893.63
2023-04-26T04:16:10.504Z,95897.75
2023-04-26T04:18:37.185Z,95892.03
2023-04-26T04:21:03.963Z,95892.03
2023-04-26T04:23:30.812Z,95894.72
2023-04-26T04:25:58.285Z,95889.47
2023-04-26T04:28:24.839Z,95903.09
2023-04-26T04:30:51.403Z,95892.41
2023-04-26T04:33:19.102Z,95891.19
2023-04-26T04:35:45.945Z,95906.44
2023-04-26T04:38:13.130Z,95916.22
2023-04-26T04:40:39.966Z,95921.25
2023-04-26T04:43:07.209Z,95916.53
2023-04-26T04:45:35.450Z,95924.13
2023-04-26T04:48:05.114Z,95922.06
2023-04-26T04:50:32.173Z,95922.28
2023-04-26T04:52:58.832Z,95916.78
2023-04-26T04:55:25.724Z,95924.88
2023-04-26T04:57:52.229Z,95913.06
2023-04-26T05:00:19.370Z,95921.25
2023-04-26T05:02:58.415Z,95921.41
2023-04-26T05:05:25.805Z,95932.16
2023-04-26T05:07:52.439Z,95932.66
2023-04-26T05:10:19.102Z,95923.34
2023-04-26T05:12:46.480Z,95943.13
2023-04-26T05:15:13.105Z,95944.94
2023-04-26T05:17:39.890Z,95945.97
2023-04-26T05:20:14.779Z,95941.91
2023-04-26T05:22:41.530Z,95936.19
2023-04-26T05:25:09.158Z,95943.19
2023-04-26T05:27:37.324Z,95939.56
2023-04-26T05:30:24.182Z,95941.94
2023-04-26T05:33:06.996Z,95944.91
2023-04-26T05:35:48.707Z,95947.84
2023-04-26T05:38:15.550Z,95939.56
2023-04-26T05:40:42.095Z,95952.56
2023-04-26T05:43:08.672Z,95951.00
2023-04-26T05:45:37.741Z,95950.69
2023-04-26T05:48:05.361Z,95935.16
2023-04-26T05:50:32.097Z,95954.59
2023-04-26T05:52:58.820Z,95960.03
2023-04-26T05:55:25.492Z,95961.34
2023-04-26T05:57:52.122Z,95954.13
2023-04-26T06:00:22.639Z,95960.97
2023-04-26T06:02:49.284Z,95957.81
2023-04-26T06:05:18.077Z,95969.44
2023-04-26T06:07:44.804Z,95969.97
2023-04-26T06:10:13.012Z,95967.47
2023-04-26T06:12:40.044Z,95969.16
2023-04-26T06:15:07.514Z,95982.28
2023-04-26T06:17:37.546Z,95966.53
2023-04-26T06:20:05.550Z,95974.53
2023-04-26T06:22:32.076Z,95978.47
2023-04-26T06:24:58.714Z,95971.94
2023-04-26T06:27:26.420Z,95980.91
2023-04-26T06:29:54.018Z,95977.97
2023-04-26T06:32:22.210Z,95971.31
2023-04-26T06:34:50.031Z,95964.44
2023-04-26T06:37:16.692Z,95973.44
2023-04-26T06:39:43.384Z,95972.03
2023-04-26T06:42:11.533Z,95976.50
2023-04-26T06:45:06.892Z,95969.28
2023-04-26T06:47:34.742Z,95970.75
2023-04-26T06:50:01.351Z,95977.19
2023-04-26T06:52:29.740Z,95986.63
2023-04-26T06:54:57.739Z,95981.94
2023-04-26T06:57:24.595Z,95986.34
2023-04-26T06:59:51.509Z,95992.97
2023-04-26T07:02:18.302Z,95988.53
2023-04-26T07:04:45.503Z,95989.72
2023-04-26T07:07:13.632Z,95981.25
2023-04-26T07:09:41.065Z,96003.34
2023-04-26T07:12:07.753Z,95987.09
2023-04-26T07:14:37.097Z,95990.75
2023-04-26T07:17:05.057Z,95991.59
2023-04-26T07:19:31.661Z,95992.44
2023-04-26T07:21:58.161Z,95988.53
2023-04-26T07:24:24.822Z,95988.28
2023-04-26T07:26:51.361Z,95987.16
2023-04-26T07:29:18.895Z,95968.84
2023-04-26T07:31:46.422Z,95982.75
2023-04-26T07:34:13.141Z,95970.94
2023-04-26T07:36:39.734Z,95990.38
2023-04-26T07:39:06.771Z,95973.63
2023-04-26T07:41:33.361Z,95986.88
2023-04-26T07:43:59.851Z,95984.53
2023-04-26T07:46:26.389Z,95988.13
2023-04-26T07:48:52.988Z,95983.69
2023-04-26T07:51:19.473Z,95984.25
2023-04-26T07:53:46.289Z,95989.47
2023-04-26T07:56:12.861Z,95985.47
2023-04-26T07:58:39.635Z,95991.72
2023-04-26T08:01:06.601Z,95992.88
2023-04-26T08:03:33.414Z,95987.94
2023-04-26T08:06:00.536Z,95988.69
2023-04-26T08:08:28.038Z,95981.06
2023-04-26T08:10:55.681Z,95971.63
2023-04-26T08:13:22.586Z,95983.72
2023-04-26T08:15:49.106Z,95978.75
2023-04-26T08:18:15.577Z,95980.31
2023-04-26T08:20:42.483Z,95989.50
2023-04-26T08:23:09.130Z,95991.28
2023-04-26T08:25:35.888Z,95994.53
2023-04-26T08:28:02.573Z,95992.69
2023-04-26T08:30:29.584Z,95987.41
2023-04-26T08:32:56.643Z,95987.09
2023-04-26T08:35:23.264Z,95987.63
2023-04-26T08:37:49.813Z,95981.81
2023-04-26T08:40:24.909Z,95982.38
2023-04-26T08:42:53.484Z,95979.50
2023-04-26T08:45:21.505Z,95978.44
2023-04-26T08:47:53.731Z,95973.41
2023-04-26T08:50:23.177Z,95983.59
2023-04-26T08:52:51.505Z,95983.59
2023-04-26T08:55:20.116Z,95984.41
2023-04-26T08:57:48.382Z,95985.75
2023-04-26T09:00:17.079Z,95980.03
2023-04-26T09:02:49.673Z,95990.28
2023-04-26T09:05:17.092Z,95964.53
2023-04-26T09:07:48.121Z,95984.25
2023-04-26T09:10:22.051Z,95986.09
2023-04-26T09:12:53.278Z,95975.59
2023-04-26T09:15:22.725Z,95983.22
2023-04-26T09:17:51.402Z,95974.75
2023-04-26T09:20:29.084Z,95974.03
2023-04-26T09:23:09.941Z,95975.84
2023-04-26T09:25:37.756Z,95982.69
2023-04-26T09:28:18.468Z,95980.31
2023-04-26T09:30:44.944Z,95981.38
2023-04-26T09:33:11.481Z,95973.50
2023-04-26T09:35:40.643Z,95975.06
2023-04-26T09:38:12.210Z,95966.41
2023-04-26T09:40:47.619Z,95950.63
2023-04-26T09:43:21.892Z,95971.06
2023-04-26T09:45:52.392Z,95970.81
2023-04-26T09:48:30.855Z,95969.72
2023-04-26T09:50:58.933Z,95973.88
2023-04-26T09:53:41.484Z,95974.38
2023-04-26T09:56:13.505Z,95969.88
2023-04-26T09:58:58.276Z,95978.84
2023-04-26T10:01:26.624Z,95970.16
2023-04-26T10:03:53.472Z,95957.06
2023-04-26T10:06:20.304Z,95962.81
2023-04-26T10:08:46.883Z,95973.84
2023-04-26T10:11:13.875Z,95966.81
2023-04-26T10:13:41.783Z,95958.09
2023-04-26T10:16:09.947Z,95952.78
2023-04-26T10:18:37.291Z,95964.22
2023-04-26T10:21:14.352Z,95938.56
2023-04-26T10:23:41.502Z,95949.38
2023-04-26T10:26:47.054Z,95951.13
2023-04-26T10:29:14.591Z,95951.28
2023-04-26T10:32:03.888Z,95950.63
2023-04-26T10:34:31.780Z,95952.16
2023-04-26T10:37:12.759Z,95941.66
2023-04-26T10:39:41.757Z,95944.25
2023-04-26T10:42:27.960Z,95955.84
2023-04-26T10:44:59.764Z,95951.75
2023-04-26T10:47:34.568Z,95940.81
2023-04-26T10:50:11.316Z,95925.69
2023-04-26T10:53:04.303Z,95924.28
2023-04-26T10:55:41.667Z,95902.44
2023-04-26T10:58:33.951Z,95909.28
2023-04-26T11:01:11.775Z,95909.84
2023-04-26T11:03:41.351Z,95900.88
2023-04-26T11:06:09.810Z,95904.78
2023-04-26T11:08:36.947Z,95896.06
2023-04-26T11:11:03.368Z,95909.19
2023-04-26T11:13:35.250Z,95909.72
2023-04-26T11:16:04.206Z,95894.31
2023-04-26T11:18:32.237Z,95897.09
2023-04-26T11:20:59.502Z,95899.66
2023-04-26T11:23:29.593Z,95905.22
2023-04-26T11:26:00.340Z,95903.47
2023-04-26T11:28:26.892Z,95888.91
2023-04-26T11:30:54.039Z,95882.84
2023-04-26T11:33:24.873Z,95885.19
2023-04-26T11:35:55.683Z,95881.06
2023-04-26T11:38:23.222Z,95874.88
2023-04-26T11:40:57.614Z,95852.75
2023-04-26T11:43:37.682Z,95868.94
2023-04-26T11:46:05.747Z,95890.72
2023-04-26T11:48:34.988Z,95885.56
2023-04-26T11:51:03.839Z,95881.88
2023-04-26T11:53:37.803Z,95895.94
2023-04-26T11:56:14.122Z,95878.59
2023-04-26T11:58:40.612Z,95879.38
2023-04-26T12:01:07.101Z,95888.22
2023-04-26T12:03:38.308Z,95899.44
2023-04-26T12:06:05.133Z,95863.94
2023-04-26T12:08:33.445Z,95890.69
2023-04-26T12:11:02.066Z,95896.53
2023-04-26T12:13:29.663Z,95889.47
2023-04-26T12:15:56.362Z,95893.56
2023-04-26T12:18:30.309Z,95889.00
2023-04-26T12:20:59.270Z,95903.50
2023-04-26T12:23:26.621Z,95883.56
2023-04-26T12:26:00.509Z,95897.66
2023-04-26T12:28:26.948Z,95896.69
2023-04-26T12:30:53.441Z,95890.31
2023-04-26T12:33:22.943Z,95905.13
2023-04-26T12:35:50.329Z,95883.41
2023-04-26T12:38:17.608Z,95880.03
2023-04-26T12:40:46.886Z,95895.53
2023-04-26T12:43:13.356Z,95871.50
2023-04-26T12:45:39.848Z,95893.06
2023-04-26T12:48:06.584Z,95890.03
2023-04-26T12:50:33.258Z,95866.63
2023-04-26T12:52:59.815Z,95862.53
2023-04-26T12:55:26.724Z,95862.25
2023-04-26T12:57:53.248Z,95865.84
2023-04-26T13:00:21.468Z,95864.09
2023-04-26T13:02:48.049Z,95868.19
2023-04-26T13:05:14.606Z,95860.59
2023-04-26T13:07:43.738Z,95853.94
2023-04-26T13:10:12.921Z,95861.47
2023-04-26T13:12:40.253Z,95866.88
2023-04-26T13:15:08.410Z,95850.72
2023-04-26T13:17:39.956Z,95861.09
2023-04-26T13:20:07.439Z,95842.59
2023-04-26T13:22:34.639Z,95862.00
2023-04-26T13:25:01.145Z,95829.28
2023-04-26T13:27:30.527Z,95850.72
2023-04-26T13:29:58.337Z,95855.47
2023-04-26T13:32:24.874Z,95856.00
2023-04-26T13:34:51.814Z,95832.25
2023-04-26T13:37:21.217Z,95840.03
2023-04-26T13:39:48.029Z,95844.81
2023-04-26T13:42:16.216Z,95838.75
2023-04-26T13:44:42.985Z,95829.81
2023-04-26T13:47:09.449Z,95835.19
2023-04-26T13:49:36.197Z,95825.13
2023-04-26T13:52:02.932Z,95808.06
2023-04-26T13:54:29.699Z,95806.50
2023-04-26T13:56:58.274Z,95833.88
2023-04-26T13:59:24.774Z,95835.72
2023-04-26T14:01:54.248Z,95820.88
2023-04-26T14:04:22.026Z,95831.50
2023-04-26T14:06:48.878Z,95812.81
2023-04-26T14:09:15.492Z,95814.25
2023-04-26T14:11:42.137Z,95810.19
2023-04-26T14:14:08.674Z,95826.03
2023-04-26T14:16:35.345Z,95822.88
2023-04-26T14:19:01.929Z,95826.38
2023-04-26T14:21:28.417Z,95822.31
2023-04-26T14:23:54.933Z,95806.72
2023-04-26T14:26:21.630Z,95829.75
2023-04-26T14:28:48.082Z,95828.38
2023-04-26T14:31:17.665Z,95797.50
2023-04-26T14:33:44.280Z,95817.28
2023-04-26T14:36:11.023Z,95814.19
2023-04-26T14:38:37.626Z,95839.75
2023-04-26T14:41:04.120Z,95827.88
2023-04-26T14:43:30.585Z,95817.34
2023-04-26T14:45:58.738Z,95814.63
2023-04-26T14:48:25.951Z,95834.59
2023-04-26T14:51:01.968Z,95827.75
2023-04-26T14:53:28.418Z,95797.28
2023-04-26T14:55:59.143Z,95819.13
2023-04-26T14:58:26.431Z,95827.59
2023-04-26T15:00:53.586Z,95831.16
2023-04-26T15:03:20.830Z,95821.53
2023-04-26T15:05:48.721Z,95813.63
2023-04-26T15:08:15.542Z,95809.91
2023-04-26T15:10:42.128Z,95812.50
2023-04-26T15:13:08.685Z,95817.56
2023-04-26T15:15:35.168Z,95813.00
2023-04-26T15:18:01.962Z,95812.91
2023-04-26T15:20:28.662Z,95809.50
2023-04-26T15:22:55.214Z,95818.59
2023-04-26T15:25:21.735Z,95807.75
2023-04-26T15:27:50.303Z,95810.47
2023-04-26T15:30:16.754Z,95809.91
2023-04-26T15:32:47.332Z,95815.13
2023-04-26T15:35:15.333Z,95796.91
2023-04-26T15:37:41.958Z,95811.31
2023-04-26T15:40:10.501Z,95793.16
2023-04-26T15:42:37.560Z,95798.13
2023-04-26T15:45:04.287Z,95818.75
2023-04-26T15:47:30.989Z,95786.22
2023-04-26T15:50:02.096Z,95804.44
2023-04-26T15:52:28.588Z,95811.63
2023-04-26T15:54:55.232Z,95823.09
2023-04-26T15:57:21.774Z,95813.03
2023-04-26T15:59:48.736Z,95804.78
2023-04-26T16:02:15.319Z,95809.00
2023-04-26T16:04:42.133Z,95794.91
2023-04-26T16:07:08.836Z,95815.06
2023-04-26T16:09:36.109Z,95816.50
2023-04-26T16:12:03.533Z,95819.94
2023-04-26T16:14:31.184Z,95820.78
2023-04-26T16:17:00.697Z,95825.97
2023-04-26T16:19:27.533Z,95819.94
2023-04-26T16:21:54.052Z,95822.84
2023-04-26T16:24:20.951Z,95819.00
2023-04-26T16:26:47.470Z,95818.84
2023-04-26T16:29:14.777Z,95824.97
2023-04-26T16:31:41.447Z,95815.63
2023-04-26T16:34:08.024Z,95821.50
2023-04-26T16:36:35.469Z,95822.63
2023-04-26T16:39:01.967Z,95816.63
2023-04-26T16:41:28.534Z,95819.56
2023-04-26T16:43:56.012Z,95820.44
2023-04-26T16:46:23.387Z,95814.69
2023-04-26T16:48:50.332Z,95821.66
2023-04-26T16:51:16.857Z,95812.34
2023-04-26T16:53:43.395Z,95814.31
2023-04-26T16:56:10.126Z,95818.56
2023-04-26T16:58:37.431Z,95825.25
2023-04-26T17:01:04.678Z,95830.81
2023-04-26T17:03:31.346Z,95831.88
2023-04-26T17:05:58.208Z,95825.34
2023-04-26T17:08:24.749Z,95833.03
2023-04-26T17:10:51.900Z,95831.47
2023-04-26T17:13:18.934Z,95840.75
2023-04-26T17:15:46.135Z,95828.66
2023-04-26T17:18:12.738Z,95842.09
2023-04-26T17:20:39.356Z,95839.28
2023-04-26T17:23:07.790Z,95849.34
2023-04-26T17:25:34.554Z,95848.81
2023-04-26T17:28:01.020Z,95856.00
2023-04-26T17:30:27.765Z,95851.59
2023-04-26T17:32:54.245Z,95849.19
2023-04-26T17:35:20.955Z,95847.34
2023-04-26T17:37:49.840Z,95856.34
2023-04-26T17:40:18.006Z,95859.00
2023-04-26T17:42:45.991Z,95866.97
2023-04-26T17:45:14.153Z,95860.63
2023-04-26T17:47:41.773Z,95870.19
2023-04-26T17:50:09.261Z,95861.53
2023-04-26T17:52:36.235Z,95868.09
2023-04-26T17:55:05.214Z,95870.78
2023-04-26T17:57:32.010Z,95873.47
2023-04-26T17:59:59.070Z,95874.53
2023-04-26T18:02:26.024Z,95860.94
2023-04-26T18:04:54.787Z,95871.97
2023-04-26T18:07:22.006Z,95876.47
2023-04-26T18:09:49.056Z,95879.19
2023-04-26T18:12:15.980Z,95876.88
2023-04-26T18:14:45.638Z,95882.75
2023-04-26T18:17:13.362Z,95889.63
2023-04-26T18:19:40.048Z,95881.56
2023-04-26T18:22:07.199Z,95892.34
2023-04-26T18:24:34.616Z,95889.53
2023-04-26T18:27:02.591Z,95897.66
2023-04-26T18:29:29.555Z,95902.44
2023-04-26T18:31:56.155Z,95908.50
2023-04-26T18:34:22.726Z,95907.47
2023-04-26T18:36:49.381Z,95905.13
2023-04-26T18:39:16.081Z,95907.50
2023-04-26T18:41:42.688Z,95912.50
2023-04-26T18:44:13.139Z,95905.69
2023-04-26T18:46:41.482Z,95909.91
2023-04-26T18:49:08.718Z,95912.78
2023-04-26T18:51:35.546Z,95914.34
2023-04-26T18:54:02.349Z,95915.16
2023-04-26T18:56:29.783Z,95918.81
2023-04-26T18:58:56.361Z,95929.34
2023-04-26T19:01:23.265Z,95926.69
2023-04-26T19:03:50.005Z,95929.84
2023-04-26T19:06:16.730Z,95936.69
2023-04-26T19:08:44.349Z,95931.69
2023-04-26T19:11:12.395Z,95930.09
2023-04-26T19:13:40.264Z,95934.28
2023-04-26T19:16:08.162Z,95936.13
2023-04-26T19:18:40.325Z,95931.13
2023-04-26T19:21:08.490Z,95938.50
2023-04-26T19:23:36.097Z,95938.97
2023-04-26T19:26:08.121Z,95934.25
2023-04-26T19:28:35.215Z,95942.13
2023-04-26T19:31:01.873Z,95944.22
2023-04-26T19:33:28.715Z,95939.78
2023-04-26T19:35:56.551Z,95941.31
2023-04-26T19:38:24.206Z,95935.31
2023-04-26T19:40:53.678Z,95938.13
2023-04-26T19:43:20.838Z,95949.13
2023-04-26T19:45:47.762Z,95944.94
2023-04-26T19:48:14.362Z,95943.06
2023-04-26T19:50:42.287Z,95953.56
2023-04-26T19:53:09.799Z,95954.63
2023-04-26T19:55:37.506Z,95949.09
2023-04-26T19:58:05.032Z,95950.38
2023-04-26T20:00:31.847Z,95940.91
2023-04-26T20:02:59.098Z,95950.88
2023-04-26T20:05:26.542Z,95949.50
2023-04-26T20:07:53.743Z,95939.25
2023-04-26T20:10:23.742Z,95949.53
2023-04-26T20:12:50.472Z,95945.06
2023-04-26T20:15:17.390Z,95949.56
2023-04-26T20:17:43.924Z,95946.63
2023-04-26T20:20:11.912Z,95951.88
2023-04-26T20:22:39.441Z,95947.69
2023-04-26T20:25:06.877Z,95946.09
2023-04-26T20:27:33.772Z,95952.69
2023-04-26T20:30:01.060Z,95937.44
2023-04-26T20:32:27.792Z,95947.16
2023-04-26T20:34:54.723Z,95962.91
2023-04-26T20:37:22.053Z,95963.41
2023-04-26T20:39:49.022Z,95960.75
2023-04-26T20:42:16.055Z,95962.81
2023-04-26T20:44:42.881Z,95966.53
2023-04-26T20:47:09.391Z,95970.41
2023-04-26T20:49:35.910Z,95962.28
2023-04-26T20:52:02.401Z,95959.91
2023-04-26T20:54:28.896Z,95968.06
2023-04-26T20:56:55.568Z,95960.94
2023-04-26T20:59:23.083Z,95970.16
2023-04-26T21:01:50.803Z,95978.56
2023-04-26T21:04:17.698Z,95973.06
2023-04-26T21:06:44.574Z,95972.84
2023-04-26T21:09:11.597Z,95973.38
2023-04-26T21:11:38.095Z,95971.56
2023-04-26T21:14:05.152Z,95962.38
2023-04-26T21:16:31.654Z,95961.09
2023-04-26T21:18:58.140Z,95965.00
2023-04-26T21:21:26.995Z,95966.88
2023-04-26T21:23:54.625Z,95962.16
2023-04-26T21:26:21.362Z,95966.88
2023-04-26T21:28:48.697Z,95959.50
2023-04-26T21:31:15.821Z,95961.84
2023-04-26T21:33:42.588Z,95966.63
2023-04-26T21:36:09.369Z,95963.94
2023-04-26T21:38:35.890Z,95966.34
2023-04-26T21:41:02.419Z,95962.16
2023-04-26T21:43:28.887Z,95964.25
2023-04-26T21:45:57.808Z,95963.44
2023-04-26T21:48:24.972Z,95968.13
2023-04-26T21:50:51.772Z,95963.66
2023-04-26T21:53:18.674Z,95968.69
2023-04-26T21:55:53.383Z,95975.72
2023-04-26T21:58:21.431Z,95980.16
2023-04-26T22:00:48.783Z,95978.31
2023-04-26T22:03:16.201Z,95974.13
2023-04-26T22:05:42.882Z,95966.00
2023-04-26T22:08:09.316Z,95953.59
2023-04-26T22:10:36.401Z,95967.31
2023-04-26T22:13:03.348Z,95965.22
2023-04-26T22:15:30.060Z,95967.78
2023-04-26T22:17:56.712Z,95956.22
2023-04-26T22:20:23.370Z,95970.94
2023-04-26T22:22:49.917Z,95960.38
2023-04-26T22:25:16.490Z,95957.25
2023-04-26T22:27:42.935Z,95965.47
2023-04-26T22:30:23.691Z,95962.00
2023-04-26T22:32:57.170Z,95977.53
2023-04-26T22:35:25.146Z,95973.31
2023-04-26T22:37:51.802Z,95963.56
2023-04-26T22:40:18.652Z,95966.22
2023-04-26T22:42:45.365Z,95973.31
2023-04-26T22:45:12.714Z,95978.28
2023-04-26T22:47:40.268Z,95980.88
2023-04-26T22:50:08.005Z,95971.91
2023-04-26T22:52:35.220Z,95979.75
2023-04-26T22:55:01.878Z,95984.25
2023-04-26T22:57:29.563Z,95977.66
2023-04-26T22:59:56.477Z,95968.78
2023-04-26T23:02:23.152Z,95985.31
2023-04-26T23:04:49.794Z,95979.75
2023-04-26T23:07:16.479Z,95978.44
2023-04-26T23:09:43.116Z,95990.31
2023-04-26T23:12:09.850Z,95995.53
2023-04-26T23:14:36.388Z,95989.22
2023-04-26T23:17:03.260Z,95983.41
2023-04-26T23:19:29.879Z,95971.81
2023-04-26T23:21:56.446Z,95972.88
2023-04-26T23:24:22.952Z,95985.50
2023-04-26T23:26:49.441Z,95982.06
2023-04-26T23:29:15.913Z,95968.91
2023-04-26T23:31:42.552Z,95959.88
2023-04-26T23:34:09.229Z,95985.13
2023-04-26T23:36:35.670Z,95982.19
2023-04-26T23:39:02.104Z,95975.06
2023-04-26T23:41:28.548Z,95968.50
2023-04-26T23:43:55.038Z,95968.91
2023-04-26T23:46:21.534Z,95981.25
2023-04-26T23:48:48.006Z,95981.53
2023-04-26T23:51:14.473Z,95969.09
2023-04-26T23:53:41.097Z,95960.59
2023-04-26T23:56:08.448Z,95969.22
2023-04-26T23:58:35.006Z,95962.66
